Time;durP1;ratioP1;P1;durP2;ratioP2;P2;SDS_P1;SDS_P2;PMS_P1;PMS_P2;Temp;Humidity;BMP_temperature;BMP_pressure;BME280_temperature;BME280_humidity;BME280_pressure;Samples;Min_cycle;Max_cycle;Signal;HPM_P1;HPM_P2
2021/12/09 00:00:12;;;;;;;29.03;16.63;;;1.60;99.90;;;;;;5096403;28;20437;-87
2021/12/09 00:02:39;;;;;;;32.97;17.40;;;1.60;99.90;;;;;;5095969;28;20410;-88
2021/12/09 00:05:07;;;;;;;35.73;18.57;;;1.60;99.90;;;;;;5096750;28;20406;-88
2021/12/09 00:07:33;;;;;;;31.23;16.83;;;1.60;99.90;;;;;;5095994;28;20462;-88
2021/12/09 00:10:01;;;;;;;28.27;17.03;;;1.60;99.90;;;;;;5095978;28;20979;-87
2021/12/09 00:12:27;;;;;;;31.80;17.57;;;1.60;99.90;;;;;;5094529;28;20204;-87
2021/12/09 00:14:53;;;;;;;21.97;13.67;;;1.60;99.90;;;;;;5095920;28;20813;-88
2021/12/09 00:17:18;;;;;;;29.40;17.40;;;1.60;99.90;;;;;;5094209;28;20511;-87
2021/12/09 00:19:44;;;;;;;31.07;15.63;;;1.60;99.90;;;;;;5094991;28;20907;-88
2021/12/09 00:22:12;;;;;;;32.27;16.40;;;1.60;99.90;;;;;;5094992;28;20195;-87
2021/12/09 00:24:38;;;;;;;26.90;13.80;;;1.60;99.90;;;;;;5095051;28;20169;-88
2021/12/09 00:27:04;;;;;;;35.43;18.13;;;1.60;99.90;;;;;;5094925;28;20919;-88
2021/12/09 00:29:31;;;;;;;36.10;20.00;;;1.60;99.90;;;;;;5094687;28;20424;-88
2021/12/09 00:31:56;;;;;;;29.70;16.67;;;1.50;99.90;;;;;;5094713;28;20411;-88
2021/12/09 00:34:30;;;;;;;31.07;17.80;;;1.50;99.90;;;;;;5094520;28;20435;-88
2021/12/09 00:37:01;;;;;;;33.43;17.20;;;1.50;99.90;;;;;;5095703;28;20171;-88
2021/12/09 00:39:27;;;;;;;32.60;17.10;;;1.50;99.90;;;;;;5094693;28;20489;-88
2021/12/09 00:41:52;;;;;;;35.13;17.77;;;1.50;99.90;;;;;;5094727;28;20418;-89
2021/12/09 00:44:18;;;;;;;33.77;18.73;;;1.50;99.90;;;;;;5094848;28;20188;-89
2021/12/09 00:46:44;;;;;;;33.03;17.00;;;1.50;99.90;;;;;;5094094;28;20172;-88
2021/12/09 00:49:10;;;;;;;28.33;17.47;;;1.50;99.90;;;;;;5094060;28;20298;-88
2021/12/09 00:51:36;;;;;;;30.13;18.20;;;1.50;99.90;;;;;;5094287;28;20642;-88
2021/12/09 00:54:02;;;;;;;39.97;20.60;;;1.50;99.90;;;;;;5095653;28;20512;-88
2021/12/09 00:56:28;;;;;;;28.17;16.87;;;1.50;99.90;;;;;;5094673;28;20420;-90
2021/12/09 00:58:55;;;;;;;30.27;18.77;;;1.50;99.90;;;;;;5095641;28;20411;-91
2021/12/09 01:01:22;;;;;;;36.87;18.83;;;1.50;99.90;;;;;;5094270;28;20180;-89
2021/12/09 01:03:47;;;;;;;36.03;18.93;;;1.50;99.90;;;;;;5094702;28;20415;-90
2021/12/09 01:06:13;;;;;;;33.77;17.70;;;1.50;99.90;;;;;;5095227;28;20420;-89
2021/12/09 01:08:39;;;;;;;29.77;17.30;;;1.50;99.90;;;;;;5094975;28;20208;-89
2021/12/09 01:11:05;;;;;;;31.43;17.47;;;1.50;99.90;;;;;;5094534;28;20699;-90
2021/12/09 01:13:31;;;;;;;36.63;19.80;;;1.50;99.90;;;;;;5095525;28;20196;-90
2021/12/09 01:15:57;;;;;;;38.27;18.90;;;1.50;99.90;;;;;;5094435;28;20453;-90
2021/12/09 01:18:22;;;;;;;34.30;20.20;;;1.50;99.90;;;;;;5096126;28;20462;-91
2021/12/09 01:20:49;;;;;;;34.77;18.63;;;1.50;99.90;;;;;;5096080;28;20416;-90
2021/12/09 01:23:14;;;;;;;33.07;18.70;;;1.50;99.90;;;;;;5096050;28;20272;-90
2021/12/09 01:25:40;;;;;;;32.10;19.10;;;1.50;99.90;;;;;;5097996;28;20846;-91
2021/12/09 01:28:09;;;;;;;42.03;22.60;;;1.50;99.90;;;;;;5096986;28;20203;-91
2021/12/09 01:30:36;;;;;;;38.43;19.37;;;1.50;99.90;;;;;;5095510;28;20580;-89
2021/12/09 01:33:02;;;;;;;33.13;18.60;;;1.50;99.90;;;;;;5095358;28;20429;-90
2021/12/09 01:35:33;;;;;;;38.00;20.67;;;1.50;99.90;;;;;;5096198;28;20409;-88
2021/12/09 01:38:02;;;;;;;26.40;15.67;;;1.50;99.90;;;;;;5094764;28;20462;-90
2021/12/09 01:40:29;;;;;;;38.77;19.83;;;1.50;99.90;;;;;;5092063;28;20995;-89
2021/12/09 01:42:57;;;;;;;32.10;21.20;;;1.50;99.90;;;;;;5093750;28;20426;-88
2021/12/09 01:45:23;;;;;;;33.43;19.20;;;1.50;99.90;;;;;;5096162;28;20513;-89
2021/12/09 01:47:48;;;;;;;38.77;19.33;;;1.40;99.90;;;;;;5093935;28;20541;-89
2021/12/09 01:50:15;;;;;;;32.97;17.07;;;1.40;99.90;;;;;;5075607;28;20530;-87
2021/12/09 01:52:41;;;;;;;30.20;18.73;;;1.50;99.90;;;;;;5087603;28;20773;-88
2021/12/09 01:55:08;;;;;;;34.97;20.40;;;1.50;99.90;;;;;;5095986;28;20448;-88
2021/12/09 01:57:34;;;;;;;33.70;18.40;;;1.40;99.90;;;;;;5094834;28;20179;-88
2021/12/09 02:00:00;;;;;;;42.77;18.60;;;1.40;99.90;;;;;;5096447;28;20418;-90
2021/12/09 02:02:26;;;;;;;35.97;19.13;;;1.40;99.90;;;;;;5095945;28;20623;-88
2021/12/09 02:04:51;;;;;;;39.20;21.23;;;1.40;99.90;;;;;;5094254;28;20844;-89
2021/12/09 02:07:17;;;;;;;39.83;19.03;;;1.40;99.90;;;;;;5093307;28;20175;-87
2021/12/09 02:09:43;;;;;;;38.73;20.80;;;1.40;99.90;;;;;;5095427;28;20183;-89
2021/12/09 02:12:10;;;;;;;33.70;18.20;;;1.40;99.90;;;;;;5094656;28;20513;-88
2021/12/09 02:14:41;;;;;;;42.63;20.00;;;1.40;99.90;;;;;;5094490;28;20168;-89
2021/12/09 02:17:07;;;;;;;37.10;19.43;;;1.40;99.90;;;;;;5094146;28;20767;-89
2021/12/09 02:19:33;;;;;;;37.37;22.33;;;1.40;99.90;;;;;;5094356;28;20417;-87
2021/12/09 02:22:00;;;;;;;43.63;20.90;;;1.40;99.90;;;;;;5094410;28;20418;-88
2021/12/09 02:24:25;;;;;;;41.23;22.67;;;1.40;99.90;;;;;;5093020;28;20176;-88
2021/12/09 02:26:51;;;;;;;41.13;20.80;;;1.40;99.90;;;;;;5093277;28;20426;-88
2021/12/09 02:29:17;;;;;;;41.23;21.07;;;1.40;99.90;;;;;;5094042;28;20269;-89
2021/12/09 02:31:43;;;;;;;41.47;22.60;;;1.30;99.90;;;;;;5093875;28;20178;-90
2021/12/09 02:34:10;;;;;;;38.97;20.80;;;1.30;99.90;;;;;;5093018;28;20430;-89
2021/12/09 02:36:39;;;;;;;36.67;18.00;;;1.30;99.90;;;;;;5092594;28;20421;-90
2021/12/09 02:39:07;;;;;;;39.20;20.00;;;1.30;99.90;;;;;;5092887;28;20465;-89
2021/12/09 02:41:33;;;;;;;51.23;23.50;;;1.30;99.90;;;;;;5096417;28;20411;-90
2021/12/09 02:44:03;;;;;;;43.10;22.07;;;1.30;99.90;;;;;;5097385;28;20421;-89
2021/12/09 02:46:35;;;;;;;37.10;21.03;;;1.30;99.90;;;;;;5096961;28;20467;-88
2021/12/09 02:49:00;;;;;;;30.43;16.57;;;1.30;99.90;;;;;;5098254;28;20491;-90
2021/12/09 02:51:26;;;;;;;42.10;20.70;;;1.30;99.90;;;;;;5098257;28;20966;-87
2021/12/09 02:53:51;;;;;;;43.00;22.33;;;1.30;99.90;;;;;;5097074;28;20220;-89
2021/12/09 02:56:19;;;;;;;34.03;19.60;;;1.30;99.90;;;;;;5097033;28;20172;-90
2021/12/09 02:58:45;;;;;;;42.47;19.77;;;1.30;99.90;;;;;;5096720;28;20538;-89
2021/12/09 03:01:16;;;;;;;43.17;22.37;;;1.30;99.90;;;;;;5096366;28;20410;-89
2021/12/09 03:03:51;;;;;;;44.40;19.83;;;1.30;99.90;;;;;;5096574;28;20232;-87
2021/12/09 03:06:19;;;;;;;51.17;23.30;;;1.30;99.90;;;;;;5096251;28;20426;-88
2021/12/09 03:08:45;;;;;;;42.93;21.97;;;1.30;99.90;;;;;;5096019;28;20567;-88
2021/12/09 03:11:14;;;;;;;42.20;18.87;;;1.30;99.90;;;;;;5097397;28;20775;-88
2021/12/09 03:13:40;;;;;;;37.57;19.20;;;1.30;99.90;;;;;;5097095;28;20424;-87
2021/12/09 03:16:07;;;;;;;39.80;19.37;;;1.30;99.90;;;;;;5095690;28;20426;-87
2021/12/09 03:18:42;;;;;;;47.60;20.07;;;1.30;99.90;;;;;;5097275;28;20817;-88
2021/12/09 03:21:22;;;;;;;42.30;20.90;;;1.30;99.90;;;;;;5095600;28;20413;-87
2021/12/09 03:23:47;;;;;;;36.40;20.70;;;1.30;99.90;;;;;;5096999;28;20426;-87
2021/12/09 03:26:15;;;;;;;52.27;24.87;;;1.20;99.90;;;;;;5095538;28;20417;-87
2021/12/09 03:28:41;;;;;;;48.53;21.13;;;1.30;99.90;;;;;;5095227;28;20207;-87
2021/12/09 03:31:07;;;;;;;38.60;21.27;;;1.20;99.90;;;;;;5096440;28;20413;-87
2021/12/09 03:33:33;;;;;;;48.50;22.43;;;1.20;99.90;;;;;;5096705;28;20230;-87
2021/12/09 03:36:03;;;;;;;37.87;19.97;;;1.30;99.90;;;;;;5095188;28;20422;-87
2021/12/09 03:38:29;;;;;;;41.70;20.90;;;1.30;99.90;;;;;;5096365;28;20471;-88
2021/12/09 03:40:55;;;;;;;40.30;22.70;;;1.20;99.90;;;;;;5096471;28;20402;-86
2021/12/09 03:43:21;;;;;;;45.73;22.53;;;1.20;99.90;;;;;;5096704;28;20659;-88
2021/12/09 03:45:48;;;;;;;44.27;21.73;;;1.20;99.90;;;;;;5094581;28;20426;-88
2021/12/09 03:48:14;;;;;;;47.53;23.00;;;1.20;99.90;;;;;;5095304;28;20457;-88
2021/12/09 03:50:40;;;;;;;47.20;23.90;;;1.20;99.90;;;;;;5094972;28;20947;-89
2021/12/09 03:53:06;;;;;;;36.80;18.70;;;1.20;99.90;;;;;;5096954;28;20167;-88
2021/12/09 03:55:31;;;;;;;45.93;21.43;;;1.20;99.90;;;;;;5096877;28;20246;-88
2021/12/09 03:57:57;;;;;;;50.23;24.40;;;1.20;99.90;;;;;;5096190;28;20251;-90
2021/12/09 04:00:28;;;;;;;44.97;21.27;;;1.20;99.90;;;;;;5093990;28;20175;-89
2021/12/09 04:02:54;;;;;;;47.77;19.73;;;1.20;99.90;;;;;;5095194;28;20172;-89
2021/12/09 04:05:19;;;;;;;44.53;23.03;;;1.30;99.90;;;;;;5096275;28;20418;-89
2021/12/09 04:07:45;;;;;;;43.93;20.20;;;1.20;99.90;;;;;;5095642;28;20466;-90
2021/12/09 04:10:10;;;;;;;46.13;21.60;;;1.20;99.90;;;;;;5095326;28;20179;-90
2021/12/09 04:12:36;;;;;;;39.77;20.37;;;1.20;99.90;;;;;;5096753;28;20191;-89
2021/12/09 04:15:03;;;;;;;55.00;23.70;;;1.20;99.90;;;;;;5095140;28;20580;-89
2021/12/09 04:17:29;;;;;;;41.87;19.67;;;1.10;99.90;;;;;;5092850;28;20272;-89
2021/12/09 04:19:55;;;;;;;41.70;19.30;;;1.20;99.90;;;;;;5075151;28;20490;-88
2021/12/09 04:22:22;;;;;;;40.33;21.93;;;1.20;99.90;;;;;;5074743;28;20169;-88
2021/12/09 04:24:49;;;;;;;46.73;23.17;;;1.20;99.90;;;;;;5103398;28;20425;-89
2021/12/09 04:27:16;;;;;;;42.00;20.40;;;1.20;99.90;;;;;;5094980;28;20425;-89
2021/12/09 04:29:41;;;;;;;40.07;21.73;;;1.20;99.90;;;;;;5094921;28;20441;-89
2021/12/09 04:32:07;;;;;;;36.87;20.97;;;1.20;99.90;;;;;;5094693;28;20418;-88
2021/12/09 04:34:33;;;;;;;43.63;21.60;;;1.10;99.90;;;;;;5094891;28;20181;-90
2021/12/09 04:36:59;;;;;;;46.23;21.80;;;1.10;99.90;;;;;;5094851;28;20786;-88
2021/12/09 04:39:25;;;;;;;37.63;22.07;;;1.10;99.90;;;;;;5094784;28;20227;-91
2021/12/09 04:41:51;;;;;;;52.40;25.43;;;1.10;99.90;;;;;;5095280;28;20422;-89
2021/12/09 04:44:17;;;;;;;36.17;19.90;;;1.10;99.90;;;;;;5095268;28;20204;-91
2021/12/09 04:46:43;;;;;;;34.33;20.73;;;1.10;99.90;;;;;;5096258;28;20411;-93
2021/12/09 04:49:09;;;;;;;45.00;20.40;;;1.10;99.90;;;;;;5095159;28;20458;-92
2021/12/09 04:51:35;;;;;;;47.93;23.57;;;1.10;99.90;;;;;;5096202;28;20420;-92
2021/12/09 04:54:03;;;;;;;36.77;20.90;;;1.10;99.90;;;;;;5095258;28;20465;-91
2021/12/09 04:56:28;;;;;;;36.17;20.97;;;1.10;99.90;;;;;;5094927;28;20407;-92
2021/12/09 04:58:54;;;;;;;41.07;19.73;;;1.10;99.90;;;;;;5096444;28;20425;-91
2021/12/09 05:01:20;;;;;;;48.47;23.60;;;1.10;99.90;;;;;;5095535;28;20164;-92
2021/12/09 05:03:48;;;;;;;38.87;19.87;;;1.10;99.90;;;;;;5093857;28;20679;-93
2021/12/09 05:06:14;;;;;;;34.70;19.10;;;1.10;99.90;;;;;;5094883;28;20410;-93
2021/12/09 05:08:45;;;;;;;39.47;19.47;;;1.10;99.90;;;;;;5095024;28;20457;-93
2021/12/09 05:11:28;;;;;;;41.60;21.53;;;1.10;99.90;;;;;;5096032;28;20463;-90
2021/12/09 05:13:55;;;;;;;44.53;20.47;;;1.10;99.90;;;;;;5094621;28;20498;-91
2021/12/09 05:16:20;;;;;;;38.77;20.43;;;1.10;99.90;;;;;;5095378;28;20417;-91
2021/12/09 05:18:48;;;;;;;45.47;21.20;;;1.10;99.90;;;;;;5095423;28;20409;-91
2021/12/09 05:21:14;;;;;;;45.43;21.73;;;1.10;99.90;;;;;;5095530;28;20174;-91
2021/12/09 05:23:40;;;;;;;41.37;22.07;;;1.10;99.90;;;;;;5095588;28;20796;-91
2021/12/09 05:26:07;;;;;;;39.20;21.30;;;1.10;99.90;;;;;;5095438;28;20464;-92
2021/12/09 05:28:36;;;;;;;42.50;21.67;;;1.10;99.90;;;;;;5095293;28;20457;-89
2021/12/09 05:33:48;;;;;;;44.93;23.60;;;1.10;99.90;;;;;;5095610;28;20390;-91
2021/12/09 05:36:14;;;;;;;34.97;20.60;;;1.10;99.90;;;;;;5094377;28;20429;-92
2021/12/09 05:38:40;;;;;;;44.87;23.80;;;1.10;99.90;;;;;;5095999;28;20523;-92
2021/12/09 05:41:06;;;;;;;40.53;23.03;;;1.10;99.90;;;;;;5095309;28;20423;-93
2021/12/09 05:43:32;;;;;;;41.47;19.80;;;1.00;99.90;;;;;;5094169;28;20176;-91
2021/12/09 05:45:58;;;;;;;40.40;20.77;;;1.10;99.90;;;;;;5094433;28;20548;-92
2021/12/09 05:48:24;;;;;;;40.40;20.70;;;1.10;99.90;;;;;;5095670;28;20212;-90
2021/12/09 05:50:50;;;;;;;39.60;22.57;;;1.00;99.90;;;;;;5094833;28;20421;-90
2021/12/09 05:53:15;;;;;;;49.63;21.73;;;1.10;99.90;;;;;;5094980;28;20291;-91
2021/12/09 05:55:43;;;;;;;50.03;20.43;;;1.00;99.90;;;;;;5093966;28;20424;-90
2021/12/09 05:58:18;;;;;;;41.73;20.43;;;1.00;99.90;;;;;;5095341;28;20165;-90
2021/12/09 06:00:44;;;;;;;39.87;20.80;;;1.10;99.90;;;;;;5094312;28;20471;-90
2021/12/09 06:03:11;;;;;;;35.43;21.10;;;1.00;99.90;;;;;;5093425;28;20522;-90
2021/12/09 06:05:37;;;;;;;36.20;20.30;;;1.00;99.90;;;;;;5093601;28;20789;-90
2021/12/09 06:08:04;;;;;;;40.23;21.43;;;1.00;99.90;;;;;;5093627;28;20466;-90
2021/12/09 06:10:30;;;;;;;34.57;16.67;;;1.00;99.90;;;;;;5093684;28;20421;-91
2021/12/09 06:12:56;;;;;;;37.77;20.00;;;1.00;99.90;;;;;;5093809;28;20469;-91
2021/12/09 06:15:22;;;;;;;43.03;21.00;;;1.00;99.90;;;;;;5092889;28;20429;-90
2021/12/09 06:17:47;;;;;;;34.20;20.43;;;1.00;99.90;;;;;;5093458;28;20194;-91
2021/12/09 06:20:13;;;;;;;40.70;21.00;;;1.00;99.90;;;;;;5094729;28;20233;-91
2021/12/09 06:22:39;;;;;;;43.93;19.53;;;1.00;99.90;;;;;;5093138;28;20647;-89
2021/12/09 06:25:05;;;;;;;41.93;19.93;;;1.00;99.90;;;;;;5093484;28;20183;-90
2021/12/09 06:27:30;;;;;;;40.00;21.00;;;1.00;99.90;;;;;;5093151;28;20200;-91
2021/12/09 06:29:56;;;;;;;42.73;24.63;;;1.00;99.90;;;;;;5093019;28;20803;-91
2021/12/09 06:32:22;;;;;;;40.93;22.17;;;1.00;99.90;;;;;;5094635;28;20198;-89
2021/12/09 06:34:47;;;;;;;43.07;23.23;;;1.00;99.90;;;;;;5093317;28;20177;-91
2021/12/09 06:37:14;;;;;;;49.10;23.87;;;1.00;99.90;;;;;;5094412;28;20225;-90
2021/12/09 06:39:39;;;;;;;38.40;22.47;;;1.00;99.90;;;;;;5094235;28;20247;-92
2021/12/09 06:42:06;;;;;;;41.83;23.33;;;1.00;99.90;;;;;;5093285;28;20922;-89
2021/12/09 06:44:31;;;;;;;40.13;20.70;;;0.90;99.90;;;;;;5092927;28;20177;-90
2021/12/09 06:46:57;;;;;;;44.67;23.20;;;1.00;99.90;;;;;;5092878;28;20939;-90
2021/12/09 06:49:24;;;;;;;47.87;24.37;;;1.00;99.90;;;;;;5093291;28;20639;-89
2021/12/09 06:51:50;;;;;;;45.97;23.13;;;1.00;99.90;;;;;;5093153;28;20172;-91
2021/12/09 06:54:16;;;;;;;36.33;20.70;;;0.90;99.90;;;;;;5092969;28;20430;-91
2021/12/09 06:56:41;;;;;;;44.07;22.33;;;0.90;99.90;;;;;;5078657;28;20423;-90
2021/12/09 06:59:07;;;;;;;44.63;24.10;;;0.90;99.90;;;;;;5073789;28;20422;-91
2021/12/09 07:01:32;;;;;;;46.53;21.67;;;0.90;99.90;;;;;;5073747;28;20179;-90
2021/12/09 07:03:58;;;;;;;47.73;22.83;;;1.00;99.90;;;;;;5074549;28;20169;-91
2021/12/09 07:06:24;;;;;;;41.43;20.70;;;0.90;99.90;;;;;;5072655;28;20172;-87
2021/12/09 07:08:52;;;;;;;46.70;20.53;;;0.90;99.90;;;;;;5073845;28;20236;-92
2021/12/09 07:11:20;;;;;;;48.93;24.50;;;0.90;99.90;;;;;;5073739;28;20168;-89
2021/12/09 07:13:48;;;;;;;42.87;24.37;;;0.90;99.90;;;;;;5072777;28;20419;-86
2021/12/09 07:16:14;;;;;;;45.07;21.30;;;0.90;99.90;;;;;;5073439;28;20455;-91
2021/12/09 07:18:40;;;;;;;44.10;23.63;;;1.00;99.90;;;;;;5072294;28;20418;-90
2021/12/09 07:21:07;;;;;;;44.10;23.00;;;0.90;99.90;;;;;;5073721;28;20418;-88
2021/12/09 07:23:34;;;;;;;49.40;24.00;;;0.90;99.90;;;;;;5072596;28;20192;-90
2021/12/09 07:26:00;;;;;;;44.10;21.90;;;0.80;99.90;;;;;;5072679;28;20412;-89
2021/12/09 07:28:25;;;;;;;51.30;24.07;;;0.90;99.90;;;;;;5076235;28;20466;-92
2021/12/09 07:30:51;;;;;;;37.73;19.17;;;0.90;99.90;;;;;;5077097;28;20171;-91
2021/12/09 07:33:17;;;;;;;45.67;25.60;;;0.90;99.90;;;;;;5077246;28;20165;-92
2021/12/09 07:35:43;;;;;;;39.70;22.60;;;0.90;99.90;;;;;;5076650;28;20169;-90
2021/12/09 07:38:10;;;;;;;39.33;22.20;;;0.90;99.90;;;;;;5076012;28;20251;-89
2021/12/09 07:40:36;;;;;;;40.57;21.10;;;0.90;99.90;;;;;;5077408;28;20208;-91
2021/12/09 07:43:02;;;;;;;46.10;22.30;;;0.90;99.90;;;;;;5077188;28;20425;-90
2021/12/09 07:45:28;;;;;;;37.90;20.80;;;1.00;99.90;;;;;;5075934;28;20782;-90
2021/12/09 07:47:54;;;;;;;37.20;17.70;;;0.90;99.90;;;;;;5076048;28;20466;-89
2021/12/09 07:50:23;;;;;;;41.73;21.97;;;0.90;99.90;;;;;;5076963;28;20447;-89
2021/12/09 07:52:51;;;;;;;51.47;23.17;;;0.90;99.90;;;;;;5077321;28;20499;-91
2021/12/09 07:55:18;;;;;;;48.10;24.53;;;0.90;99.90;;;;;;5075361;28;20439;-88
2021/12/09 07:57:44;;;;;;;49.57;23.30;;;0.90;99.90;;;;;;5075175;28;20511;-88
2021/12/09 08:00:42;;;;;;;42.10;24.87;;;0.90;99.90;;;;;;5087591;28;20425;-89
2021/12/09 08:03:08;;;;;;;54.93;23.70;;;0.90;99.90;;;;;;5094568;28;20458;-88
2021/12/09 08:05:39;;;;;;;46.77;20.90;;;0.90;99.90;;;;;;5096087;28;20439;-87
2021/12/09 08:08:05;;;;;;;46.60;22.63;;;0.90;99.90;;;;;;5095692;28;20613;-88
2021/12/09 08:10:31;;;;;;;42.97;22.07;;;0.90;99.90;;;;;;5093921;28;20429;-87
2021/12/09 08:12:58;;;;;;;43.37;22.87;;;0.90;99.90;;;;;;5096126;28;20779;-88
2021/12/09 08:15:26;;;;;;;43.50;23.90;;;1.00;99.90;;;;;;5094617;28;20941;-88
2021/12/09 08:20:37;;;;;;;44.93;21.20;;;1.00;99.90;;;;;;5096315;28;20428;-87
2021/12/09 08:23:03;;;;;;;43.03;21.37;;;0.90;99.90;;;;;;5094828;28;20483;-89
2021/12/09 08:25:28;;;;;;;42.17;20.47;;;1.00;99.90;;;;;;5095786;28;20902;-87
2021/12/09 08:27:54;;;;;;;46.40;24.23;;;0.90;99.90;;;;;;5095273;28;20566;-88
2021/12/09 08:30:25;;;;;;;37.90;21.10;;;1.00;99.90;;;;;;5094231;28;20173;-88
2021/12/09 08:32:51;;;;;;;48.60;23.10;;;1.00;99.90;;;;;;5093703;28;20176;-88
2021/12/09 08:35:18;;;;;;;44.23;22.90;;;1.00;99.90;;;;;;5093958;28;20418;-87
2021/12/09 08:37:45;;;;;;;40.03;24.37;;;1.00;99.90;;;;;;5093972;28;20450;-87
2021/12/09 08:40:12;;;;;;;43.17;22.47;;;1.00;99.90;;;;;;5086313;28;20426;-90
2021/12/09 08:42:38;;;;;;;45.17;22.90;;;1.00;99.90;;;;;;5095238;28;20407;-90
2021/12/09 08:45:08;;;;;;;42.80;21.97;;;1.10;99.90;;;;;;5095731;28;20437;-91
2021/12/09 08:47:34;;;;;;;46.27;22.93;;;1.10;99.90;;;;;;5096222;28;20438;-89
2021/12/09 08:50:00;;;;;;;56.33;26.53;;;1.00;99.90;;;;;;5096001;28;20410;-90
2021/12/09 08:52:26;;;;;;;41.33;22.87;;;1.10;99.90;;;;;;5095257;28;20411;-90
2021/12/09 08:54:51;;;;;;;45.87;22.90;;;1.00;99.90;;;;;;5095863;28;20168;-89
2021/12/09 08:57:19;;;;;;;50.20;25.40;;;1.10;99.90;;;;;;5094722;28;20192;-90
2021/12/09 08:59:44;;;;;;;43.67;20.83;;;1.10;99.90;;;;;;5095547;28;20210;-84
2021/12/09 09:02:11;;;;;;;43.43;22.30;;;1.10;99.90;;;;;;5096078;28;20915;-90
2021/12/09 09:04:37;;;;;;;47.20;21.23;;;1.10;99.90;;;;;;5094782;28;20263;-90
2021/12/09 09:07:02;;;;;;;41.60;22.80;;;1.10;99.90;;;;;;5095667;28;20567;-90
2021/12/09 09:09:33;;;;;;;49.47;24.17;;;1.20;99.90;;;;;;5094401;28;20545;-89
2021/12/09 09:12:07;;;;;;;47.17;21.60;;;1.20;99.90;;;;;;5091932;28;20252;-90
2021/12/09 09:14:33;;;;;;;50.37;25.67;;;1.10;99.90;;;;;;5093821;28;20910;-87
2021/12/09 09:16:59;;;;;;;41.20;19.17;;;1.10;99.90;;;;;;5094378;28;20415;-89
2021/12/09 09:19:25;;;;;;;45.10;23.50;;;1.10;99.90;;;;;;5094398;28;20410;-91
2021/12/09 09:21:51;;;;;;;57.00;26.47;;;1.20;99.90;;;;;;5095384;28;20437;-87
2021/12/09 09:24:17;;;;;;;48.37;21.67;;;1.20;99.90;;;;;;5093997;28;20177;-89
2021/12/09 09:26:43;;;;;;;45.60;23.40;;;1.30;99.90;;;;;;5095103;28;20493;-88
2021/12/09 09:29:09;;;;;;;46.83;23.53;;;1.20;99.90;;;;;;5094948;28;20230;-92
2021/12/09 09:31:35;;;;;;;43.43;22.57;;;1.20;99.90;;;;;;5093658;28;20179;-85
2021/12/09 09:34:04;;;;;;;42.37;21.00;;;1.20;99.90;;;;;;5093439;28;20184;-88
2021/12/09 09:36:31;;;;;;;46.07;21.20;;;1.30;99.90;;;;;;5095996;28;20418;-91
2021/12/09 09:39:11;;;;;;;43.27;21.40;;;1.20;99.90;;;;;;5096437;28;20464;-88
2021/12/09 09:41:37;;;;;;;40.30;22.20;;;1.20;99.90;;;;;;5095759;28;20399;-91
2021/12/09 09:44:15;;;;;;;32.97;19.83;;;1.20;99.90;;;;;;5095305;28;20468;-91
2021/12/09 09:46:41;;;;;;;43.83;23.47;;;1.20;99.90;;;;;;5095425;28;20402;-91
2021/12/09 09:49:08;;;;;;;44.93;23.23;;;1.20;99.90;;;;;;5095323;28;20530;-92
2021/12/09 09:51:36;;;;;;;45.20;24.40;;;1.20;99.90;;;;;;5094702;28;20456;-92
2021/12/09 09:54:03;;;;;;;40.77;22.43;;;1.20;99.90;;;;;;5094557;28;20879;-92
2021/12/09 09:56:29;;;;;;;41.33;22.60;;;1.20;99.90;;;;;;5094145;28;20803;-91
2021/12/09 09:59:01;;;;;;;45.80;22.83;;;1.10;99.90;;;;;;5095602;28;20969;-92
2021/12/09 10:01:29;;;;;;;48.23;23.27;;;1.20;99.90;;;;;;5094757;28;20432;-90
2021/12/09 10:04:09;;;;;;;34.60;18.80;;;1.10;99.90;;;;;;5089798;28;20514;-90
2021/12/09 10:06:36;;;;;;;42.37;21.77;;;1.10;99.90;;;;;;5094324;28;20425;-92
2021/12/09 10:09:05;;;;;;;40.73;21.63;;;1.20;99.90;;;;;;5094852;28;20453;-90
2021/12/09 10:11:30;;;;;;;54.23;25.17;;;1.20;99.90;;;;;;5094973;28;20417;-92
2021/12/09 10:14:11;;;;;;;48.13;25.40;;;1.20;99.90;;;;;;5094854;28;20422;-93
2021/12/09 10:16:38;;;;;;;46.13;25.00;;;1.20;99.90;;;;;;5079829;28;20538;-92
2021/12/09 10:19:17;;;;;;;45.70;21.33;;;1.10;99.90;;;;;;5076344;28;20517;-90
2021/12/09 10:21:44;;;;;;;43.97;23.70;;;1.20;99.90;;;;;;5093181;28;20793;-85
2021/12/09 10:24:10;;;;;;;43.57;23.27;;;1.10;99.90;;;;;;5093515;28;20946;-93
2021/12/09 10:26:41;;;;;;;49.93;23.03;;;1.10;99.90;;;;;;5089364;28;20433;-89
2021/12/09 10:29:09;;;;;;;57.90;23.83;;;1.10;99.90;;;;;;5081273;28;20458;-87
2021/12/09 10:31:42;;;;;;;49.23;24.17;;;1.10;99.90;;;;;;5093727;28;20969;-93
2021/12/09 10:36:51;;;;;;;45.00;22.60;;;1.20;99.90;;;;;;5095180;28;20405;-92
2021/12/09 10:39:24;;;;;;;47.07;22.70;;;1.20;99.90;;;;;;5093973;28;20546;-93
2021/12/09 10:41:51;;;;;;;43.60;22.67;;;1.20;99.90;;;;;;5093108;28;20945;-92
2021/12/09 10:44:28;;;;;;;57.30;24.00;;;1.30;99.90;;;;;;5094154;28;20414;-92
2021/12/09 10:47:04;;;;;;;45.10;24.13;;;1.30;99.90;;;;;;5094355;28;20406;-91
2021/12/09 10:49:35;;;;;;;47.07;23.63;;;1.30;99.90;;;;;;5094622;28;20465;-92
2021/12/09 10:52:19;;;;;;;47.43;22.13;;;1.30;99.90;;;;;;5093452;28;20414;-90
2021/12/09 10:54:45;;;;;;;55.47;25.80;;;1.30;99.90;;;;;;5092815;28;20775;-88
2021/12/09 10:57:29;;;;;;;46.70;23.83;;;1.40;99.90;;;;;;5090919;28;20568;-88
2021/12/09 10:59:56;;;;;;;39.67;20.07;;;1.40;99.90;;;;;;5090576;28;20207;-86
2021/12/09 11:02:24;;;;;;;43.07;23.83;;;1.30;99.90;;;;;;5088735;28;20790;-88
2021/12/09 11:05:06;;;;;;;42.03;23.60;;;1.30;99.90;;;;;;5076789;28;20604;-87
2021/12/09 11:07:32;;;;;;;43.77;22.83;;;1.30;99.90;;;;;;5076007;28;20504;-86
2021/12/09 11:10:33;;;;;;;42.63;22.97;;;1.30;99.90;;;;;;5075209;28;20959;-89
2021/12/09 11:12:59;;;;;;;51.50;22.57;;;1.30;99.90;;;;;;5006827;28;20432;-91
2021/12/09 11:15:47;;;;;;;48.37;22.40;;;1.30;99.90;;;;;;5074414;28;20426;-91
2021/12/09 11:19:09;;;;;;;60.47;25.33;;;1.30;99.90;;;;;;5074563;28;20762;-84
2021/12/09 11:21:40;;;;;;;48.87;26.37;;;1.30;99.90;;;;;;5032612;28;20429;-84
2021/12/09 11:24:11;;;;;;;50.30;25.67;;;1.40;99.90;;;;;;5074327;28;20422;-84
2021/12/09 11:26:59;;;;;;;46.43;24.43;;;1.50;99.90;;;;;;5075349;28;20419;-83
2021/12/09 11:29:45;;;;;;;57.83;26.07;;;1.60;99.90;;;;;;5075069;28;20968;-85
2021/12/09 11:32:28;;;;;;;45.30;25.43;;;1.60;99.90;;;;;;5075074;28;20553;-83
2021/12/09 11:35:19;;;;;;;55.30;25.50;;;1.60;99.90;;;;;;5075029;28;20403;-84
2021/12/09 11:37:54;;;;;;;54.20;24.20;;;1.60;99.90;;;;;;5074911;28;20994;-84
2021/12/09 11:40:38;;;;;;;52.47;26.37;;;1.70;99.90;;;;;;5074867;28;20422;-83
2021/12/09 11:43:06;;;;;;;48.97;24.57;;;1.70;99.90;;;;;;5074979;28;20411;-84
2021/12/09 11:45:37;;;;;;;48.27;22.53;;;1.80;99.90;;;;;;5074438;28;20444;-84
2021/12/09 11:48:06;;;;;;;43.00;22.07;;;1.90;99.90;;;;;;5075195;28;20925;-85
2021/12/09 11:50:35;;;;;;;55.57;23.90;;;1.90;99.90;;;;;;5094797;28;20446;-84
2021/12/09 11:53:05;;;;;;;53.00;25.73;;;1.80;99.90;;;;;;5094909;28;20406;-84
2021/12/09 11:55:36;;;;;;;53.23;23.97;;;1.90;99.90;;;;;;5094954;28;20439;-84
2021/12/09 12:13:06;;;;;;;48.00;25.80;;;1.90;99.90;;;;;;5094576;28;20932;-84
2021/12/09 12:24:05;;;;;;;58.50;26.53;;;1.80;99.90;;;;;;5095982;28;20405;-86
2021/12/09 12:39:33;;;;;;;50.53;24.67;;;2.10;99.90;;;;;;5075166;28;20511;-89
2021/12/09 12:42:12;;;;;;;58.50;25.97;;;2.20;99.90;;;;;;5078805;28;20431;-87
2021/12/09 12:45:19;;;;;;;51.30;25.20;;;2.40;99.90;;;;;;5073548;28;20452;-86
2021/12/09 12:47:53;;;;;;;59.07;29.07;;;2.40;99.90;;;;;;5074836;28;20951;-86
2021/12/09 12:50:21;;;;;;;52.00;24.10;;;2.20;99.90;;;;;;5079136;28;20420;-86
2021/12/09 12:52:47;;;;;;;52.10;25.47;;;2.30;99.90;;;;;;5073778;28;20450;-86
2021/12/09 12:55:18;;;;;;;49.77;24.40;;;2.30;99.90;;;;;;5074678;28;20411;-86
2021/12/09 12:57:48;;;;;;;53.20;24.30;;;2.10;99.90;;;;;;5073505;28;20171;-87
2021/12/09 13:00:18;;;;;;;45.40;25.63;;;2.10;99.90;;;;;;5074368;28;20581;-86
2021/12/09 13:03:06;;;;;;;41.40;23.67;;;2.10;99.90;;;;;;5090172;28;20463;-85
2021/12/09 13:11:37;;;;;;;56.87;27.20;;;2.20;99.90;;;;;;5074360;28;20407;-85
2021/12/09 13:14:06;;;;;;;57.77;27.23;;;2.20;99.90;;;;;;5073846;28;20449;-88
2021/12/09 13:16:47;;;;;;;48.97;27.03;;;2.20;99.90;;;;;;5084969;28;20828;-85
2021/12/09 13:19:21;;;;;;;48.10;22.53;;;2.00;99.90;;;;;;5094646;28;20407;-85
2021/12/09 13:21:51;;;;;;;57.07;26.47;;;2.10;99.90;;;;;;5093688;28;20918;-87
2021/12/09 13:24:21;;;;;;;51.77;27.90;;;2.10;99.90;;;;;;5093859;28;20506;-85
2021/12/09 13:27:06;;;;;;;64.47;27.50;;;2.10;99.90;;;;;;5094076;28;20410;-86
2021/12/09 13:32:23;;;;;;;54.53;25.60;;;2.10;99.90;;;;;;5094334;28;20409;-86
2021/12/09 13:35:05;;;;;;;57.43;26.40;;;2.10;99.90;;;;;;5092878;28;20431;-86